sensor_id;sensor_type;location;lat;lon;timestamp;temperature;humidity
23267;DHT22;11802;53.160;8.214;2023-06-01T00:01:26;12.60;99.90
23267;DHT22;11802;53.160;8.214;2023-06-01T00:03:52;12.50;99.90
23267;DHT22;11802;53.160;8.214;2023-06-01T00:06:18;12.50;99.90
23267;DHT22;11802;53.160;8.214;2023-06-01T00:08:43;12.60;99.90
23267;DHT22;11802;53.160;8.214;2023-06-01T00:11:09;12.50;99.90
23267;DHT22;11802;53.160;8.214;2023-06-01T00:13:34;12.40;99.90
23267;DHT22;11802;53.160;8.214;2023-06-01T00:16:00;12.40;99.90
23267;DHT22;11802;53.160;8.214;2023-06-01T00:18:26;12.40;99.90
23267;DHT22;11802;53.160;8.214;2023-06-01T00:20:52;12.50;99.90
23267;DHT22;11802;53.160;8.214;2023-06-01T00:23:18;12.50;99.90
23267;DHT22;11802;53.160;8.214;2023-06-01T00:25:45;12.40;99.90
23267;DHT22;11802;53.160;8.214;2023-06-01T00:28:11;12.30;99.90
23267;DHT22;11802;53.160;8.214;2023-06-01T00:30:37;12.30;99.90
23267;DHT22;11802;53.160;8.214;2023-06-01T00:33:02;12.20;99.90
23267;DHT22;11802;53.160;8.214;2023-06-01T00:35:28;12.20;99.90
23267;DHT22;11802;53.160;8.214;2023-06-01T00:37:53;12.10;99.90
23267;DHT22;11802;53.160;8.214;2023-06-01T00:40:19;12.10;99.90
23267;DHT22;11802;53.160;8.214;2023-06-01T00:42:44;12.00;99.90
23267;DHT22;11802;53.160;8.214;2023-06-01T00:45:10;12.00;99.90
23267;DHT22;11802;53.160;8.214;2023-06-01T00:47:40;12.10;99.90
23267;DHT22;11802;53.160;8.214;2023-06-01T00:50:07;12.10;99.90
23267;DHT22;11802;53.160;8.214;2023-06-01T00:52:35;12.10;99.90
23267;DHT22;11802;53.160;8.214;2023-06-01T00:55:01;12.20;99.90
23267;DHT22;11802;53.160;8.214;2023-06-01T00:57:27;12.20;99.90
23267;DHT22;11802;53.160;8.214;2023-06-01T00:59:54;12.30;99.90
23267;DHT22;11802;53.160;8.214;2023-06-01T01:02:20;12.40;99.90
23267;DHT22;11802;53.160;8.214;2023-06-01T01:04:46;12.30;99.90
23267;DHT22;11802;53.160;8.214;2023-06-01T01:10:41;12.20;99.90
23267;DHT22;11802;53.160;8.214;2023-06-01T01:15:53;12.10;99.90
23267;DHT22;11802;53.160;8.214;2023-06-01T01:18:30;12.20;99.90
23267;DHT22;11802;53.160;8.214;2023-06-01T01:21:01;12.20;99.90
23267;DHT22;11802;53.160;8.214;2023-06-01T01:29:05;12.10;99.90
23267;DHT22;11802;53.160;8.214;2023-06-01T01:31:32;12.10;99.90
23267;DHT22;11802;53.160;8.214;2023-06-01T01:33:59;12.00;99.90
23267;DHT22;11802;53.160;8.214;2023-06-01T01:36:26;12.00;99.90
23267;DHT22;11802;53.160;8.214;2023-06-01T01:38:52;12.10;99.90
23267;DHT22;11802;53.160;8.214;2023-06-01T01:41:18;12.00;99.90
23267;DHT22;11802;53.160;8.214;2023-06-01T01:43:44;12.00;99.90
23267;DHT22;11802;53.160;8.214;2023-06-01T01:46:22;11.90;99.90
23267;DHT22;11802;53.160;8.214;2023-06-01T01:49:26;12.00;99.90
23267;DHT22;11802;53.160;8.214;2023-06-01T01:52:18;12.00;99.90
23267;DHT22;11802;53.160;8.214;2023-06-01T01:54:46;12.10;99.90
23267;DHT22;11802;53.160;8.214;2023-06-01T01:57:13;12.00;99.90
23267;DHT22;11802;53.160;8.214;2023-06-01T01:59:41;12.00;99.90
23267;DHT22;11802;53.160;8.214;2023-06-01T02:02:07;12.10;99.90
23267;DHT22;11802;53.160;8.214;2023-06-01T02:04:32;12.10;99.90
23267;DHT22;11802;53.160;8.214;2023-06-01T02:07:03;12.00;99.90
23267;DHT22;11802;53.160;8.214;2023-06-01T02:09:29;12.00;99.90
23267;DHT22;11802;53.160;8.214;2023-06-01T02:11:54;12.00;99.90
23267;DHT22;11802;53.160;8.214;2023-06-01T02:14:20;12.00;99.90
23267;DHT22;11802;53.160;8.214;2023-06-01T02:16:45;12.00;99.90
23267;DHT22;11802;53.160;8.214;2023-06-01T02:19:11;12.00;99.90
23267;DHT22;11802;53.160;8.214;2023-06-01T02:21:37;12.00;99.90
23267;DHT22;11802;53.160;8.214;2023-06-01T02:24:03;12.00;99.90
23267;DHT22;11802;53.160;8.214;2023-06-01T02:26:31;12.00;99.90
23267;DHT22;11802;53.160;8.214;2023-06-01T02:28:57;12.00;99.90
23267;DHT22;11802;53.160;8.214;2023-06-01T02:31:23;12.00;99.90
23267;DHT22;11802;53.160;8.214;2023-06-01T02:33:49;12.00;99.90
23267;DHT22;11802;53.160;8.214;2023-06-01T02:36:15;12.00;99.90
23267;DHT22;11802;53.160;8.214;2023-06-01T02:38:42;12.00;99.90
23267;DHT22;11802;53.160;8.214;2023-06-01T02:41:07;12.00;99.90
23267;DHT22;11802;53.160;8.214;2023-06-01T02:43:34;12.00;99.90
23267;DHT22;11802;53.160;8.214;2023-06-01T02:46:00;12.00;99.90
23267;DHT22;11802;53.160;8.214;2023-06-01T02:48:26;11.90;99.90
23267;DHT22;11802;53.160;8.214;2023-06-01T02:50:53;11.90;99.90
23267;DHT22;11802;53.160;8.214;2023-06-01T02:53:19;11.90;99.90
23267;DHT22;11802;53.160;8.214;2023-06-01T02:55:44;11.90;99.90
23267;DHT22;11802;53.160;8.214;2023-06-01T02:58:10;12.00;99.90
23267;DHT22;11802;53.160;8.214;2023-06-01T03:00:44;12.00;99.90
23267;DHT22;11802;53.160;8.214;2023-06-01T03:03:10;12.10;99.90
23267;DHT22;11802;53.160;8.214;2023-06-01T03:05:37;12.10;99.90
23267;DHT22;11802;53.160;8.214;2023-06-01T03:08:03;12.10;99.90
23267;DHT22;11802;53.160;8.214;2023-06-01T03:10:28;12.10;99.90
23267;DHT22;11802;53.160;8.214;2023-06-01T03:12:54;12.10;99.90
23267;DHT22;11802;53.160;8.214;2023-06-01T03:15:20;12.10;99.90
23267;DHT22;11802;53.160;8.214;2023-06-01T03:17:46;12.20;99.90
23267;DHT22;11802;53.160;8.214;2023-06-01T03:20:11;12.20;99.90
23267;DHT22;11802;53.160;8.214;2023-06-01T03:22:46;12.10;99.90
23267;DHT22;11802;53.160;8.214;2023-06-01T03:25:13;12.10;99.90
23267;DHT22;11802;53.160;8.214;2023-06-01T03:27:39;12.10;99.90
23267;DHT22;11802;53.160;8.214;2023-06-01T03:30:06;12.10;99.90
23267;DHT22;11802;53.160;8.214;2023-06-01T03:32:37;12.00;99.90
23267;DHT22;11802;53.160;8.214;2023-06-01T03:35:03;11.90;99.90
23267;DHT22;11802;53.160;8.214;2023-06-01T03:37:29;11.90;99.90
23267;DHT22;11802;53.160;8.214;2023-06-01T03:39:55;11.80;99.90
23267;DHT22;11802;53.160;8.214;2023-06-01T03:42:20;11.90;99.90
23267;DHT22;11802;53.160;8.214;2023-06-01T03:44:46;11.90;99.90
23267;DHT22;11802;53.160;8.214;2023-06-01T03:47:11;11.90;99.90
23267;DHT22;11802;53.160;8.214;2023-06-01T03:49:39;11.90;99.90
23267;DHT22;11802;53.160;8.214;2023-06-01T03:52:06;11.90;99.90
23267;DHT22;11802;53.160;8.214;2023-06-01T03:54:33;11.90;99.90
23267;DHT22;11802;53.160;8.214;2023-06-01T03:56:58;11.90;99.90
23267;DHT22;11802;53.160;8.214;2023-06-01T03:59:24;11.90;99.90
23267;DHT22;11802;53.160;8.214;2023-06-01T04:01:50;11.90;99.90
23267;DHT22;11802;53.160;8.214;2023-06-01T04:04:17;11.90;99.90
23267;DHT22;11802;53.160;8.214;2023-06-01T04:06:45;11.90;99.90
23267;DHT22;11802;53.160;8.214;2023-06-01T04:09:11;11.90;99.90
23267;DHT22;11802;53.160;8.214;2023-06-01T04:11:38;11.90;99.90
23267;DHT22;11802;53.160;8.214;2023-06-01T04:14:05;11.90;99.90
23267;DHT22;11802;53.160;8.214;2023-06-01T04:16:31;12.00;99.90
23267;DHT22;11802;53.160;8.214;2023-06-01T04:18:56;12.00;99.90
23267;DHT22;11802;53.160;8.214;2023-06-01T04:21:22;12.00;99.90
23267;DHT22;11802;53.160;8.214;2023-06-01T04:23:48;12.00;99.90
23267;DHT22;11802;53.160;8.214;2023-06-01T04:26:14;12.00;99.90
23267;DHT22;11802;53.160;8.214;2023-06-01T04:28:40;12.00;99.90
23267;DHT22;11802;53.160;8.214;2023-06-01T04:31:10;12.00;99.90
23267;DHT22;11802;53.160;8.214;2023-06-01T04:33:43;12.00;99.90
23267;DHT22;11802;53.160;8.214;2023-06-01T04:36:11;11.90;99.90
23267;DHT22;11802;53.160;8.214;2023-06-01T04:38:39;12.00;99.90
23267;DHT22;11802;53.160;8.214;2023-06-01T04:41:06;12.00;99.90
23267;DHT22;11802;53.160;8.214;2023-06-01T04:43:32;11.90;99.90
23267;DHT22;11802;53.160;8.214;2023-06-01T04:45:58;12.00;99.90
23267;DHT22;11802;53.160;8.214;2023-06-01T04:48:29;12.00;99.90
23267;DHT22;11802;53.160;8.214;2023-06-01T04:50:56;12.00;99.90
23267;DHT22;11802;53.160;8.214;2023-06-01T04:53:23;12.00;99.90
23267;DHT22;11802;53.160;8.214;2023-06-01T04:55:48;12.10;99.90
23267;DHT22;11802;53.160;8.214;2023-06-01T04:58:14;12.10;99.90
23267;DHT22;11802;53.160;8.214;2023-06-01T05:00:39;12.10;99.90
23267;DHT22;11802;53.160;8.214;2023-06-01T05:03:05;12.10;99.90
23267;DHT22;11802;53.160;8.214;2023-06-01T05:05:31;12.20;99.90
23267;DHT22;11802;53.160;8.214;2023-06-01T05:07:56;12.20;99.90
23267;DHT22;11802;53.160;8.214;2023-06-01T05:10:22;12.20;99.90
23267;DHT22;11802;53.160;8.214;2023-06-01T05:12:47;12.20;99.90
23267;DHT22;11802;53.160;8.214;2023-06-01T05:15:13;12.10;99.90
23267;DHT22;11802;53.160;8.214;2023-06-01T05:17:39;12.10;99.90
23267;DHT22;11802;53.160;8.214;2023-06-01T05:20:05;12.20;99.90
23267;DHT22;11802;53.160;8.214;2023-06-01T05:22:33;12.10;99.90
23267;DHT22;11802;53.160;8.214;2023-06-01T05:24:59;12.10;99.90
23267;DHT22;11802;53.160;8.214;2023-06-01T05:27:26;12.20;99.90
23267;DHT22;11802;53.160;8.214;2023-06-01T05:29:51;12.30;99.90
23267;DHT22;11802;53.160;8.214;2023-06-01T05:32:17;12.30;99.90
23267;DHT22;11802;53.160;8.214;2023-06-01T05:34:42;12.40;99.90
23267;DHT22;11802;53.160;8.214;2023-06-01T05:37:08;12.50;99.90
23267;DHT22;11802;53.160;8.214;2023-06-01T05:39:33;12.40;99.90
23267;DHT22;11802;53.160;8.214;2023-06-01T05:41:59;12.50;99.90
23267;DHT22;11802;53.160;8.214;2023-06-01T05:44:25;12.50;99.90
23267;DHT22;11802;53.160;8.214;2023-06-01T05:46:51;12.50;99.90
23267;DHT22;11802;53.160;8.214;2023-06-01T05:49:18;12.60;99.90
23267;DHT22;11802;53.160;8.214;2023-06-01T05:51:44;12.60;99.90
23267;DHT22;11802;53.160;8.214;2023-06-01T05:54:11;12.70;99.90
23267;DHT22;11802;53.160;8.214;2023-06-01T05:56:37;12.70;99.90
23267;DHT22;11802;53.160;8.214;2023-06-01T05:59:03;12.60;99.90
23267;DHT22;11802;53.160;8.214;2023-06-01T06:01:29;12.70;99.90
23267;DHT22;11802;53.160;8.214;2023-06-01T06:03:57;12.70;99.90
23267;DHT22;11802;53.160;8.214;2023-06-01T06:06:23;12.70;99.90
23267;DHT22;11802;53.160;8.214;2023-06-01T06:08:49;12.60;99.90
23267;DHT22;11802;53.160;8.214;2023-06-01T06:11:15;12.70;99.90
23267;DHT22;11802;53.160;8.214;2023-06-01T06:13:41;12.70;99.90
23267;DHT22;11802;53.160;8.214;2023-06-01T06:16:07;12.80;99.90
23267;DHT22;11802;53.160;8.214;2023-06-01T06:18:32;12.80;99.90
23267;DHT22;11802;53.160;8.214;2023-06-01T06:20:58;13.00;99.90
23267;DHT22;11802;53.160;8.214;2023-06-01T06:23:23;13.00;99.90
23267;DHT22;11802;53.160;8.214;2023-06-01T06:25:49;13.10;99.90
23267;DHT22;11802;53.160;8.214;2023-06-01T06:28:15;13.30;99.90
23267;DHT22;11802;53.160;8.214;2023-06-01T06:30:40;13.30;99.90
23267;DHT22;11802;53.160;8.214;2023-06-01T06:33:09;13.30;99.90
23267;DHT22;11802;53.160;8.214;2023-06-01T06:35:58;13.20;99.90
23267;DHT22;11802;53.160;8.214;2023-06-01T06:38:26;13.20;99.90
23267;DHT22;11802;53.160;8.214;2023-06-01T06:41:14;13.30;99.90
23267;DHT22;11802;53.160;8.214;2023-06-01T06:43:51;13.20;99.90
23267;DHT22;11802;53.160;8.214;2023-06-01T06:46:23;13.20;99.90
23267;DHT22;11802;53.160;8.214;2023-06-01T06:49:07;13.10;99.90
23267;DHT22;11802;53.160;8.214;2023-06-01T06:51:37;12.90;99.90
23267;DHT22;11802;53.160;8.214;2023-06-01T06:54:12;12.90;99.90
23267;DHT22;11802;53.160;8.214;2023-06-01T06:56:47;12.80;99.90
23267;DHT22;11802;53.160;8.214;2023-06-01T06:59:13;12.70;99.90
23267;DHT22;11802;53.160;8.214;2023-06-01T07:01:48;12.70;99.90
23267;DHT22;11802;53.160;8.214;2023-06-01T07:04:23;12.80;99.90
23267;DHT22;11802;53.160;8.214;2023-06-01T07:07:00;12.80;99.90
23267;DHT22;11802;53.160;8.214;2023-06-01T07:09:29;12.90;99.90
23267;DHT22;11802;53.160;8.214;2023-06-01T07:12:23;13.00;99.90
23267;DHT22;11802;53.160;8.214;2023-06-01T07:15:06;12.90;99.90
23267;DHT22;11802;53.160;8.214;2023-06-01T07:17:38;13.10;99.90
23267;DHT22;11802;53.160;8.214;2023-06-01T07:20:10;13.20;99.90
23267;DHT22;11802;53.160;8.214;2023-06-01T07:22:37;13.20;99.90
23267;DHT22;11802;53.160;8.214;2023-06-01T07:25:18;13.10;99.90
23267;DHT22;11802;53.160;8.214;2023-06-01T07:27:46;13.10;99.90
23267;DHT22;11802;53.160;8.214;2023-06-01T07:30:16;13.20;99.90
23267;DHT22;11802;53.160;8.214;2023-06-01T07:32:51;13.20;99.90
23267;DHT22;11802;53.160;8.214;2023-06-01T07:35:23;13.20;99.90
23267;DHT22;11802;53.160;8.214;2023-06-01T07:37:49;13.30;99.90
23267;DHT22;11802;53.160;8.214;2023-06-01T07:40:15;13.40;99.90
23267;DHT22;11802;53.160;8.214;2023-06-01T07:42:40;13.60;99.90
23267;DHT22;11802;53.160;8.214;2023-06-01T07:45:07;13.70;99.90
23267;DHT22;11802;53.160;8.214;2023-06-01T07:47:39;13.70;99.90
23267;DHT22;11802;53.160;8.214;2023-06-01T07:50:07;13.80;99.90
23267;DHT22;11802;53.160;8.214;2023-06-01T07:52:33;13.80;99.90
23267;DHT22;11802;53.160;8.214;2023-06-01T07:55:19;13.80;99.90
23267;DHT22;11802;53.160;8.214;2023-06-01T07:57:45;13.90;99.90
23267;DHT22;11802;53.160;8.214;2023-06-01T08:00:11;13.90;99.90
23267;DHT22;11802;53.160;8.214;2023-06-01T08:02:38;13.90;99.90
23267;DHT22;11802;53.160;8.214;2023-06-01T08:05:04;14.10;99.90
23267;DHT22;11802;53.160;8.214;2023-06-01T08:07:30;14.00;99.90
23267;DHT22;11802;53.160;8.214;2023-06-01T08:09:56;13.90;99.90
23267;DHT22;11802;53.160;8.214;2023-06-01T08:12:24;13.80;99.90
23267;DHT22;11802;53.160;8.214;2023-06-01T08:18:26;13.70;99.90
23267;DHT22;11802;53.160;8.214;2023-06-01T08:20:52;13.60;99.90
23267;DHT22;11802;53.160;8.214;2023-06-01T08:23:18;13.60;99.90
23267;DHT22;11802;53.160;8.214;2023-06-01T08:25:47;13.60;99.90
23267;DHT22;11802;53.160;8.214;2023-06-01T08:28:13;13.70;99.90
23267;DHT22;11802;53.160;8.214;2023-06-01T08:30:39;13.80;99.90
23267;DHT22;11802;53.160;8.214;2023-06-01T08:33:05;13.90;99.90
23267;DHT22;11802;53.160;8.214;2023-06-01T08:35:31;13.90;99.90
23267;DHT22;11802;53.160;8.214;2023-06-01T08:38:02;13.90;99.90
23267;DHT22;11802;53.160;8.214;2023-06-01T08:40:29;14.00;99.90
23267;DHT22;11802;53.160;8.214;2023-06-01T08:43:02;13.90;99.90
23267;DHT22;11802;53.160;8.214;2023-06-01T08:45:31;13.90;99.90
23267;DHT22;11802;53.160;8.214;2023-06-01T08:47:58;14.00;99.90
23267;DHT22;11802;53.160;8.214;2023-06-01T08:50:26;14.00;99.90
23267;DHT22;11802;53.160;8.214;2023-06-01T08:52:56;14.00;99.90
23267;DHT22;11802;53.160;8.214;2023-06-01T08:55:23;14.00;99.90
23267;DHT22;11802;53.160;8.214;2023-06-01T08:57:49;14.00;99.90
23267;DHT22;11802;53.160;8.214;2023-06-01T09:00:15;14.10;99.90
23267;DHT22;11802;53.160;8.214;2023-06-01T09:02:43;14.30;99.90
23267;DHT22;11802;53.160;8.214;2023-06-01T09:05:14;14.50;99.90
23267;DHT22;11802;53.160;8.214;2023-06-01T09:07:42;14.60;99.90
23267;DHT22;11802;53.160;8.214;2023-06-01T09:10:08;14.80;99.90
23267;DHT22;11802;53.160;8.214;2023-06-01T09:12:34;15.00;99.90
23267;DHT22;11802;53.160;8.214;2023-06-01T09:15:16;15.20;99.90
23267;DHT22;11802;53.160;8.214;2023-06-01T09:17:46;15.40;99.90
23267;DHT22;11802;53.160;8.214;2023-06-01T09:22:54;15.20;99.90
23267;DHT22;11802;53.160;8.214;2023-06-01T09:25:25;15.30;99.90
23267;DHT22;11802;53.160;8.214;2023-06-01T09:27:59;15.50;99.90
23267;DHT22;11802;53.160;8.214;2023-06-01T09:30:42;15.80;99.90
23267;DHT22;11802;53.160;8.214;2023-06-01T09:33:22;15.90;99.90
23267;DHT22;11802;53.160;8.214;2023-06-01T09:35:55;15.90;99.90
23267;DHT22;11802;53.160;8.214;2023-06-01T09:38:41;16.20;99.90
23267;DHT22;11802;53.160;8.214;2023-06-01T09:41:07;16.20;99.90
23267;DHT22;11802;53.160;8.214;2023-06-01T09:43:43;16.30;99.90
23267;DHT22;11802;53.160;8.214;2023-06-01T09:46:10;16.10;99.90
23267;DHT22;11802;53.160;8.214;2023-06-01T09:48:39;16.20;99.90
23267;DHT22;11802;53.160;8.214;2023-06-01T09:51:23;16.10;99.90
23267;DHT22;11802;53.160;8.214;2023-06-01T09:53:54;16.10;99.90
23267;DHT22;11802;53.160;8.214;2023-06-01T09:56:20;16.00;99.90
23267;DHT22;11802;53.160;8.214;2023-06-01T09:58:45;16.00;99.90
23267;DHT22;11802;53.160;8.214;2023-06-01T10:01:13;16.10;99.90
23267;DHT22;11802;53.160;8.214;2023-06-01T10:03:42;16.00;99.90
23267;DHT22;11802;53.160;8.214;2023-06-01T10:06:11;16.20;99.90
23267;DHT22;11802;53.160;8.214;2023-06-01T10:08:37;16.30;99.90
23267;DHT22;11802;53.160;8.214;2023-06-01T10:11:03;16.40;99.90
23267;DHT22;11802;53.160;8.214;2023-06-01T10:13:29;16.70;99.90
23267;DHT22;11802;53.160;8.214;2023-06-01T10:15:56;16.70;99.90
23267;DHT22;11802;53.160;8.214;2023-06-01T10:18:22;16.60;99.90
23267;DHT22;11802;53.160;8.214;2023-06-01T10:20:47;16.90;99.90
23267;DHT22;11802;53.160;8.214;2023-06-01T10:23:14;17.00;99.90
23267;DHT22;11802;53.160;8.214;2023-06-01T10:25:42;17.10;99.90
23267;DHT22;11802;53.160;8.214;2023-06-01T10:28:11;17.20;99.90
23267;DHT22;11802;53.160;8.214;2023-06-01T10:30:37;17.30;99.90
23267;DHT22;11802;53.160;8.214;2023-06-01T10:33:03;17.30;99.90
23267;DHT22;11802;53.160;8.214;2023-06-01T10:40:33;17.40;99.90
23267;DHT22;11802;53.160;8.214;2023-06-01T10:42:59;17.50;99.90
23267;DHT22;11802;53.160;8.214;2023-06-01T10:48:00;17.70;99.90
23267;DHT22;11802;53.160;8.214;2023-06-01T10:50:25;18.00;99.90
23267;DHT22;11802;53.160;8.214;2023-06-01T10:52:52;18.00;99.90
23267;DHT22;11802;53.160;8.214;2023-06-01T10:55:20;18.30;99.90
23267;DHT22;11802;53.160;8.214;2023-06-01T10:57:50;18.40;99.90
23267;DHT22;11802;53.160;8.214;2023-06-01T11:00:32;18.30;99.90
23267;DHT22;11802;53.160;8.214;2023-06-01T11:03:07;18.20;99.90
23267;DHT22;11802;53.160;8.214;2023-06-01T11:08:02;18.20;99.90
23267;DHT22;11802;53.160;8.214;2023-06-01T11:13:25;18.60;99.90
23267;DHT22;11802;53.160;8.214;2023-06-01T11:18:44;18.40;99.90
23267;DHT22;11802;53.160;8.214;2023-06-01T11:21:27;18.30;99.90
23267;DHT22;11802;53.160;8.214;2023-06-01T11:23:58;17.90;99.90
23267;DHT22;11802;53.160;8.214;2023-06-01T11:26:30;17.90;99.90
23267;DHT22;11802;53.160;8.214;2023-06-01T11:29:24;17.90;99.90
23267;DHT22;11802;53.160;8.214;2023-06-01T11:31:53;17.90;99.90
23267;DHT22;11802;53.160;8.214;2023-06-01T11:36:53;18.00;99.90
23267;DHT22;11802;53.160;8.214;2023-06-01T11:39:25;18.10;99.90
23267;DHT22;11802;53.160;8.214;2023-06-01T11:42:11;18.40;99.90
23267;DHT22;11802;53.160;8.214;2023-06-01T11:44:39;18.10;99.90
23267;DHT22;11802;53.160;8.214;2023-06-01T11:47:06;18.20;99.90
23267;DHT22;11802;53.160;8.214;2023-06-01T11:49:47;18.10;99.90
23267;DHT22;11802;53.160;8.214;2023-06-01T11:52:17;18.50;99.90
23267;DHT22;11802;53.160;8.214;2023-06-01T11:54:43;18.40;99.90
23267;DHT22;11802;53.160;8.214;2023-06-01T11:57:09;18.40;99.90
23267;DHT22;11802;53.160;8.214;2023-06-01T12:02:18;18.20;99.90
23267;DHT22;11802;53.160;8.214;2023-06-01T12:05:03;18.30;99.90
23267;DHT22;11802;53.160;8.214;2023-06-01T12:07:42;18.50;99.90
23267;DHT22;11802;53.160;8.214;2023-06-01T12:10:10;18.70;99.90
23267;DHT22;11802;53.160;8.214;2023-06-01T12:12:36;18.90;99.90
23267;DHT22;11802;53.160;8.214;2023-06-01T12:15:03;19.10;99.90
23267;DHT22;11802;53.160;8.214;2023-06-01T12:17:49;19.30;99.90
23267;DHT22;11802;53.160;8.214;2023-06-01T12:21:11;18.90;99.90
23267;DHT22;11802;53.160;8.214;2023-06-01T12:23:41;18.90;99.90
23267;DHT22;11802;53.160;8.214;2023-06-01T12:26:07;18.70;99.90
23267;DHT22;11802;53.160;8.214;2023-06-01T12:28:53;18.70;99.90
23267;DHT22;11802;53.160;8.214;2023-06-01T12:31:20;18.60;99.90
23267;DHT22;11802;53.160;8.214;2023-06-01T12:33:46;18.40;99.90
23267;DHT22;11802;53.160;8.214;2023-06-01T12:36:35;18.60;99.90
23267;DHT22;11802;53.160;8.214;2023-06-01T12:39:02;18.50;99.90
23267;DHT22;11802;53.160;8.214;2023-06-01T12:47:59;18.00;99.90
23267;DHT22;11802;53.160;8.214;2023-06-01T12:50:25;17.70;99.90
23267;DHT22;11802;53.160;8.214;2023-06-01T12:52:50;18.00;99.90
23267;DHT22;11802;53.160;8.214;2023-06-01T12:55:16;18.10;99.90
23267;DHT22;11802;53.160;8.214;2023-06-01T12:57:43;18.10;99.90
23267;DHT22;11802;53.160;8.214;2023-06-01T13:00:09;18.10;99.90
23267;DHT22;11802;53.160;8.214;2023-06-01T13:02:44;17.80;99.90
23267;DHT22;11802;53.160;8.214;2023-06-01T13:05:15;17.60;99.90
23267;DHT22;11802;53.160;8.214;2023-06-01T13:07:42;17.70;99.90
23267;DHT22;11802;53.160;8.214;2023-06-01T13:10:10;17.70;99.90
23267;DHT22;11802;53.160;8.214;2023-06-01T13:12:36;17.80;99.90
23267;DHT22;11802;53.160;8.214;2023-06-01T13:15:02;18.00;99.90
23267;DHT22;11802;53.160;8.214;2023-06-01T13:17:28;17.80;99.90
23267;DHT22;11802;53.160;8.214;2023-06-01T13:19:57;17.70;99.90
23267;DHT22;11802;53.160;8.214;2023-06-01T13:22:22;17.70;99.90
23267;DHT22;11802;53.160;8.214;2023-06-01T13:24:48;17.90;99.90
23267;DHT22;11802;53.160;8.214;2023-06-01T13:27:14;17.90;99.90
23267;DHT22;11802;53.160;8.214;2023-06-01T13:29:39;17.70;99.90
23267;DHT22;11802;53.160;8.214;2023-06-01T13:32:05;17.70;99.90
23267;DHT22;11802;53.160;8.214;2023-06-01T13:34:31;17.70;99.90
23267;DHT22;11802;53.160;8.214;2023-06-01T13:36:57;17.90;99.90
23267;DHT22;11802;53.160;8.214;2023-06-01T13:39:23;17.50;99.90
23267;DHT22;11802;53.160;8.214;2023-06-01T13:41:48;17.20;99.90
23267;DHT22;11802;53.160;8.214;2023-06-01T13:44:14;17.40;99.90
23267;DHT22;11802;53.160;8.214;2023-06-01T13:46:40;17.20;99.90
23267;DHT22;11802;53.160;8.214;2023-06-01T13:49:05;17.30;99.90
23267;DHT22;11802;53.160;8.214;2023-06-01T13:51:32;17.60;99.90
23267;DHT22;11802;53.160;8.214;2023-06-01T13:53:58;17.60;99.90
23267;DHT22;11802;53.160;8.214;2023-06-01T13:56:24;17.80;99.90
23267;DHT22;11802;53.160;8.214;2023-06-01T13:58:50;17.60;99.90
23267;DHT22;11802;53.160;8.214;2023-06-01T14:01:16;17.80;99.90
23267;DHT22;11802;53.160;8.214;2023-06-01T14:03:42;18.00;99.90
23267;DHT22;11802;53.160;8.214;2023-06-01T14:06:07;18.00;99.90
23267;DHT22;11802;53.160;8.214;2023-06-01T14:08:33;18.20;99.90
23267;DHT22;11802;53.160;8.214;2023-06-01T14:10:59;18.40;99.90
23267;DHT22;11802;53.160;8.214;2023-06-01T14:13:25;18.60;99.90
23267;DHT22;11802;53.160;8.214;2023-06-01T14:15:51;18.90;99.90
23267;DHT22;11802;53.160;8.214;2023-06-01T14:18:16;18.90;99.90
23267;DHT22;11802;53.160;8.214;2023-06-01T14:20:42;18.80;99.90
23267;DHT22;11802;53.160;8.214;2023-06-01T14:23:07;18.90;99.90
23267;DHT22;11802;53.160;8.214;2023-06-01T14:25:34;18.90;99.90
23267;DHT22;11802;53.160;8.214;2023-06-01T14:28:00;18.80;99.90
23267;DHT22;11802;53.160;8.214;2023-06-01T14:30:25;18.60;99.90
23267;DHT22;11802;53.160;8.214;2023-06-01T14:32:52;18.30;99.90
23267;DHT22;11802;53.160;8.214;2023-06-01T14:35:18;17.80;99.90
23267;DHT22;11802;53.160;8.214;2023-06-01T14:37:44;17.90;99.90
23267;DHT22;11802;53.160;8.214;2023-06-01T14:40:10;18.10;99.90
23267;DHT22;11802;53.160;8.214;2023-06-01T14:42:37;18.00;99.90
23267;DHT22;11802;53.160;8.214;2023-06-01T14:45:04;18.10;99.90
23267;DHT22;11802;53.160;8.214;2023-06-01T14:47:30;18.20;99.90
23267;DHT22;11802;53.160;8.214;2023-06-01T14:49:55;18.00;99.90
23267;DHT22;11802;53.160;8.214;2023-06-01T14:52:21;17.80;99.90
23267;DHT22;11802;53.160;8.214;2023-06-01T14:54:47;17.70;99.90
23267;DHT22;11802;53.160;8.214;2023-06-01T14:57:14;17.50;99.90
23267;DHT22;11802;53.160;8.214;2023-06-01T14:59:40;17.80;99.90
23267;DHT22;11802;53.160;8.214;2023-06-01T15:02:06;18.10;99.90
23267;DHT22;11802;53.160;8.214;2023-06-01T15:04:32;18.20;99.90
23267;DHT22;11802;53.160;8.214;2023-06-01T15:07:01;18.00;99.90
23267;DHT22;11802;53.160;8.214;2023-06-01T15:09:27;18.00;99.90
23267;DHT22;11802;53.160;8.214;2023-06-01T15:11:52;18.00;99.90
23267;DHT22;11802;53.160;8.214;2023-06-01T15:14:18;17.90;99.90
23267;DHT22;11802;53.160;8.214;2023-06-01T15:16:44;17.90;99.90
23267;DHT22;11802;53.160;8.214;2023-06-01T15:19:10;18.00;99.90
23267;DHT22;11802;53.160;8.214;2023-06-01T15:21:35;18.00;99.90
23267;DHT22;11802;53.160;8.214;2023-06-01T15:24:01;18.30;99.90
23267;DHT22;11802;53.160;8.214;2023-06-01T15:26:27;18.20;99.90
23267;DHT22;11802;53.160;8.214;2023-06-01T15:28:53;17.90;99.90
23267;DHT22;11802;53.160;8.214;2023-06-01T15:31:18;17.90;99.90
23267;DHT22;11802;53.160;8.214;2023-06-01T15:33:44;17.90;99.90
23267;DHT22;11802;53.160;8.214;2023-06-01T15:36:10;17.80;99.90
23267;DHT22;11802;53.160;8.214;2023-06-01T15:38:36;17.90;99.90
23267;DHT22;11802;53.160;8.214;2023-06-01T15:41:02;17.90;99.90
23267;DHT22;11802;53.160;8.214;2023-06-01T15:43:28;18.00;99.90
23267;DHT22;11802;53.160;8.214;2023-06-01T15:45:54;18.00;99.90
23267;DHT22;11802;53.160;8.214;2023-06-01T15:48:19;18.00;99.90
23267;DHT22;11802;53.160;8.214;2023-06-01T15:50:45;17.90;99.90
23267;DHT22;11802;53.160;8.214;2023-06-01T15:53:10;17.80;99.90
23267;DHT22;11802;53.160;8.214;2023-06-01T15:55:36;18.10;99.90
23267;DHT22;11802;53.160;8.214;2023-06-01T15:58:01;18.00;99.90
23267;DHT22;11802;53.160;8.214;2023-06-01T16:00:27;18.10;99.90
23267;DHT22;11802;53.160;8.214;2023-06-01T16:02:53;18.00;99.90
23267;DHT22;11802;53.160;8.214;2023-06-01T16:05:19;17.80;99.90
23267;DHT22;11802;53.160;8.214;2023-06-01T16:07:44;17.50;99.90
23267;DHT22;11802;53.160;8.214;2023-06-01T16:10:10;17.60;99.90
23267;DHT22;11802;53.160;8.214;2023-06-01T16:12:37;17.50;99.90
23267;DHT22;11802;53.160;8.214;2023-06-01T16:15:03;17.50;99.90
23267;DHT22;11802;53.160;8.214;2023-06-01T16:17:29;17.30;99.90
23267;DHT22;11802;53.160;8.214;2023-06-01T16:19:54;17.30;99.90
23267;DHT22;11802;53.160;8.214;2023-06-01T16:22:20;17.30;99.90